Time;durP1;ratioP1;P1;durP2;ratioP2;P2;SDS_P1;SDS_P2;PMS_P1;PMS_P2;Temp;Humidity;BMP_temperature;BMP_pressure;BME280_temperature;BME280_humidity;BME280_pressure;Samples;Min_cycle;Max_cycle;Signal;HPM_P1;HPM_P2
2023/04/20 00:00:00;;;;;;;11.07;9.68;;;;;;;8.44;73.18;94419.78;5020305;28;20035;-75
2023/04/20 00:02:25;;;;;;;10.52;9.43;;;;;;;8.45;73.64;94413.66;5056276;28;20064;-75
2023/04/20 00:04:51;;;;;;;11.90;9.77;;;;;;;8.52;73.17;94429.50;5056898;28;20032;-75
2023/04/20 00:07:17;;;;;;;10.02;8.95;;;;;;;8.57;72.66;94428.19;5053196;28;20038;-75
2023/04/20 00:09:42;;;;;;;10.68;9.52;;;;;;;8.57;70.25;94417.84;5053013;28;20100;-75
2023/04/20 00:12:09;;;;;;;10.43;8.68;;;;;;;8.41;70.78;94417.44;5050745;28;20048;-75
2023/04/20 00:14:34;;;;;;;11.90;9.43;;;;;;;8.39;71.99;94414.16;5036894;28;20028;-75
2023/04/20 00:17:00;;;;;;;12.50;9.68;;;;;;;8.39;71.10;94417.56;5043419;28;20044;-75
2023/04/20 00:19:27;;;;;;;12.15;8.80;;;;;;;8.36;70.66;94404.84;5036583;28;20040;-75
2023/04/20 00:21:53;;;;;;;11.27;9.60;;;;;;;8.44;70.81;94402.50;5039690;28;20127;-75
2023/04/20 00:24:18;;;;;;;12.23;8.98;;;;;;;8.32;72.29;94395.66;5071239;28;20116;-75
2023/04/20 00:26:44;;;;;;;9.77;8.77;;;;;;;8.37;71.16;94413.44;5053328;28;20502;-75
2023/04/20 00:29:09;;;;;;;9.80;8.82;;;;;;;8.35;72.32;94407.53;5070870;28;20021;-75
2023/04/20 00:31:35;;;;;;;10.55;8.77;;;;;;;8.40;72.15;94405.44;5056602;28;20089;-75
2023/04/20 00:34:00;;;;;;;11.07;9.45;;;;;;;8.20;72.87;94383.72;5073399;28;20024;-75
2023/04/20 00:36:26;;;;;;;11.23;9.90;;;;;;;8.19;72.38;94397.59;5073423;28;20043;-75
2023/04/20 00:38:51;;;;;;;10.60;8.98;;;;;;;8.27;72.99;94397.81;5073067;28;20081;-75
2023/04/20 00:41:17;;;;;;;10.93;8.88;;;;;;;8.29;69.79;94403.69;5080927;28;20516;-75
2023/04/20 00:43:52;;;;;;;12.45;9.05;;;;;;;8.10;70.70;94375.06;5076182;28;20078;-75
2023/04/20 00:46:18;;;;;;;12.00;9.50;;;;;;;8.19;71.21;94402.78;5077801;28;20056;-75
2023/04/20 00:48:44;;;;;;;9.52;8.43;;;;;;;8.26;71.03;94402.16;5043682;28;20032;-75
2023/04/20 00:51:09;;;;;;;11.25;9.13;;;;;;;8.34;69.38;94390.38;5076504;28;20043;-75
2023/04/20 00:53:35;;;;;;;9.88;8.88;;;;;;;8.25;70.54;94392.75;5076394;28;20421;-75
2023/04/20 00:56:00;;;;;;;9.75;8.38;;;;;;;8.33;67.72;94389.56;5092763;28;20237;-74
2023/04/20 00:58:26;;;;;;;10.27;8.95;;;;;;;8.26;68.70;94394.41;5060247;28;20426;-75
2023/04/20 01:00:51;;;;;;;11.18;8.63;;;;;;;8.27;69.40;94379.69;5039639;28;20080;-75
2023/04/20 01:03:17;;;;;;;10.55;8.60;;;;;;;8.37;69.27;94396.13;5060437;28;20040;-75
2023/04/20 01:05:42;;;;;;;11.07;9.57;;;;;;;8.20;69.54;94384.53;5060224;28;20042;-75
2023/04/20 01:08:08;;;;;;;10.07;9.00;;;;;;;8.34;69.51;94393.78;5059805;28;20032;-75
2023/04/20 01:10:33;;;;;;;13.02;9.38;;;;;;;8.33;68.46;94384.41;5068337;28;20020;-75
2023/04/20 01:12:58;;;;;;;10.98;9.05;;;;;;;8.33;68.83;94384.41;5057662;28;20040;-75
2023/04/20 01:15:24;;;;;;;11.55;8.88;;;;;;;8.43;69.01;94395.66;5023599;28;20032;-75
2023/04/20 01:17:51;;;;;;;12.65;9.35;;;;;;;8.40;68.53;94382.97;5074801;28;20512;-75
2023/04/20 01:20:16;;;;;;;12.48;8.95;;;;;;;8.38;68.59;94402.94;5061584;28;20024;-75
2023/04/20 01:22:52;;;;;;;9.93;8.88;;;;;;;8.37;67.54;94384.97;5059573;28;20040;-75
2023/04/20 01:25:18;;;;;;;9.98;8.85;;;;;;;8.47;68.28;94402.25;5076823;28;20038;-75
2023/04/20 01:27:43;;;;;;;12.60;8.88;;;;;;;8.50;68.29;94396.81;5059782;28;20436;-75
2023/04/20 01:30:09;;;;;;;9.90;8.90;;;;;;;8.50;67.70;94396.00;5075750;28;20023;-75
2023/04/20 01:32:34;;;;;;;9.88;8.27;;;;;;;8.36;66.95;94376.38;5075602;28;20036;-75
2023/04/20 01:35:00;;;;;;;10.27;8.82;;;;;;;8.59;67.03;94394.44;5076356;28;20032;-75
2023/04/20 01:37:26;;;;;;;11.32;8.65;;;;;;;8.57;67.11;94391.94;5059626;28;20475;-75
2023/04/20 01:39:51;;;;;;;10.02;8.35;;;;;;;8.52;67.26;94370.78;5075661;28;20051;-75
2023/04/20 01:42:17;;;;;;;12.65;9.00;;;;;;;8.60;66.53;94383.13;5070091;28;20028;-75
2023/04/20 01:44:42;;;;;;;10.02;8.52;;;;;;;8.72;67.10;94389.91;5073272;28;20532;-75
2023/04/20 01:47:07;;;;;;;13.50;8.48;;;;;;;8.64;68.07;94394.88;5059295;28;20036;-75
2023/04/20 01:49:33;;;;;;;10.43;8.80;;;;;;;8.74;67.57;94385.38;5076197;28;20035;-75
2023/04/20 01:51:58;;;;;;;11.30;8.35;;;;;;;8.56;68.25;94363.63;5059607;28;20041;-75
2023/04/20 01:54:24;;;;;;;10.00;8.20;;;;;;;8.64;68.71;94369.00;5042941;28;20033;-75
2023/04/20 01:56:49;;;;;;;9.65;8.40;;;;;;;8.76;68.77;94380.91;5073803;28;20048;-75
2023/04/20 01:59:15;;;;;;;10.40;8.63;;;;;;;8.67;68.96;94366.13;5056003;28;20028;-75
2023/04/20 02:01:40;;;;;;;13.32;8.98;;;;;;;8.75;69.46;94370.66;5073721;28;20494;-75
2023/04/20 02:04:06;;;;;;;9.13;8.00;;;;;;;8.77;69.12;94379.94;5074176;28;20487;-75
2023/04/20 02:06:32;;;;;;;10.55;8.80;;;;;;;8.71;70.32;94357.16;5022466;28;20423;-75
2023/04/20 02:08:57;;;;;;;12.00;8.85;;;;;;;8.75;70.23;94374.09;5039178;28;20025;-75
2023/04/20 02:11:22;;;;;;;10.85;8.40;;;;;;;8.78;70.11;94363.47;5042481;28;20085;-75
2023/04/20 02:13:48;;;;;;;8.93;8.02;;;;;;;8.72;70.61;94353.63;5093768;28;20020;-75
2023/04/20 02:16:13;;;;;;;10.73;8.15;;;;;;;8.79;68.96;94365.13;5041491;28;20043;-75
2023/04/20 02:18:39;;;;;;;12.07;8.10;;;;;;;8.58;69.36;94346.16;5093056;28;20414;-75
2023/04/20 02:21:05;;;;;;;11.57;9.18;;;;;;;8.75;69.09;94373.25;5042838;28;20032;-75
2023/04/20 02:23:30;;;;;;;12.52;9.43;;;;;;;8.82;68.24;94375.22;5059246;28;20107;-75
2023/04/20 02:25:56;;;;;;;13.18;8.95;;;;;;;8.64;68.91;94356.03;5058484;28;20029;-75
2023/04/20 02:28:21;;;;;;;11.38;8.52;;;;;;;8.61;68.34;94364.03;5072639;28;20039;-75
2023/04/20 02:30:47;;;;;;;10.73;8.75;;;;;;;8.50;69.83;94344.22;5080395;28;20025;-75
2023/04/20 02:33:12;;;;;;;12.18;9.45;;;;;;;8.57;70.43;94360.06;5057556;28;20036;-75
2023/04/20 02:35:37;;;;;;;12.50;8.95;;;;;;;8.56;70.81;94379.97;5041410;28;20089;-75
2023/04/20 02:38:03;;;;;;;11.43;9.05;;;;;;;8.58;69.91;94372.06;5073156;28;20032;-75
2023/04/20 02:40:28;;;;;;;12.05;8.75;;;;;;;8.48;70.19;94378.00;5054103;28;20041;-75
2023/04/20 02:42:54;;;;;;;9.98;8.65;;;;;;;8.50;68.70;94376.09;5037714;28;20031;-75
2023/04/20 02:45:20;;;;;;;10.57;8.18;;;;;;;8.49;69.27;94374.44;5072893;28;20039;-75
2023/04/20 02:47:45;;;;;;;11.48;8.98;;;;;;;8.49;69.53;94371.84;5055180;28;20028;-75
2023/04/20 02:50:11;;;;;;;10.93;9.40;;;;;;;8.44;69.78;94379.19;5070870;28;20036;-75
2023/04/20 02:52:36;;;;;;;10.32;9.07;;;;;;;8.42;69.99;94375.91;5051995;28;20036;-75
2023/04/20 02:55:02;;;;;;;10.98;8.45;;;;;;;8.29;71.15;94368.28;5079096;28;20032;-75
2023/04/20 02:57:27;;;;;;;9.90;8.45;;;;;;;8.47;71.56;94385.91;5038197;28;20028;-75
2023/04/20 02:59:53;;;;;;;10.20;8.30;;;;;;;8.15;70.89;94344.47;5072212;28;20478;-75
2023/04/20 03:02:18;;;;;;;10.00;8.90;;;;;;;8.25;71.47;94366.88;5036666;28;20430;-75
2023/04/20 03:04:44;;;;;;;11.90;9.57;;;;;;;8.40;70.16;94382.16;5056753;28;20028;-75
2023/04/20 03:07:09;;;;;;;11.90;9.68;;;;;;;8.31;69.03;94386.28;5062164;28;20028;-75
2023/04/20 03:09:36;;;;;;;10.57;9.30;;;;;;;8.44;68.59;94384.38;5054847;28;20029;-75
2023/04/20 03:12:02;;;;;;;10.77;8.27;;;;;;;8.36;68.10;94384.16;5054310;28;20028;-75
2023/04/20 03:14:28;;;;;;;10.55;9.13;;;;;;;8.31;69.41;94381.09;5065656;28;20634;-75
2023/04/20 03:16:53;;;;;;;10.82;9.30;;;;;;;8.33;70.72;94368.88;5057438;28;20065;-75
2023/04/20 03:19:18;;;;;;;10.95;9.20;;;;;;;8.32;69.87;94366.38;5069020;28;20418;-75
2023/04/20 03:21:44;;;;;;;11.38;9.40;;;;;;;8.34;68.05;94375.66;5032411;28;20017;-75
2023/04/20 03:24:09;;;;;;;10.88;8.65;;;;;;;8.31;69.43;94369.94;5054446;28;20089;-75
2023/04/20 03:26:35;;;;;;;11.50;9.05;;;;;;;8.37;70.46;94383.19;5036411;28;20090;-75
2023/04/20 03:29:01;;;;;;;11.40;9.05;;;;;;;8.25;71.04;94379.00;5079478;28;20516;-75
2023/04/20 03:31:26;;;;;;;9.63;8.25;;;;;;;8.33;70.09;94379.22;5072605;28;20081;-76
2023/04/20 03:33:51;;;;;;;10.35;8.60;;;;;;;8.37;70.17;94382.38;5042134;28;20448;-75
2023/04/20 03:36:17;;;;;;;11.60;8.60;;;;;;;8.29;70.57;94372.63;5075130;28;20032;-76
2023/04/20 03:38:42;;;;;;;12.05;9.32;;;;;;;8.34;69.65;94380.84;5088200;28;20028;-75
2023/04/20 03:41:08;;;;;;;9.88;8.30;;;;;;;8.36;69.62;94389.31;5068183;28;20068;-75
2023/04/20 03:43:33;;;;;;;12.35;10.48;;;;;;;8.31;71.20;94375.09;5045740;28;20036;-76
2023/04/20 03:45:59;;;;;;;11.88;9.35;;;;;;;8.25;71.35;94379.81;5055177;28;20044;-75
2023/04/20 03:48:24;;;;;;;11.30;9.15;;;;;;;8.33;70.38;94383.53;5041162;28;20093;-75
2023/04/20 03:50:50;;;;;;;10.48;8.50;;;;;;;8.33;69.83;94389.56;5089626;28;20116;-75
2023/04/20 03:53:15;;;;;;;10.43;8.60;;;;;;;8.38;72.61;94395.16;5041522;28;20054;-75
2023/04/20 03:55:41;;;;;;;10.07;8.50;;;;;;;8.38;70.80;94392.59;5087098;28;20101;-76
2023/04/20 03:58:07;;;;;;;11.88;8.50;;;;;;;8.33;69.75;94378.38;5062822;28;20457;-75
2023/04/20 04:00:32;;;;;;;11.15;8.77;;;;;;;8.33;68.10;94374.03;5054367;28;20043;-75
2023/04/20 04:02:58;;;;;;;9.63;8.32;;;;;;;8.49;69.28;94391.75;5098280;28;20036;-75
2023/04/20 04:05:24;;;;;;;9.90;8.68;;;;;;;8.54;68.37;94399.97;5064286;28;20024;-75
2023/04/20 04:07:49;;;;;;;11.10;8.70;;;;;;;8.55;67.23;94396.41;5072936;28;20028;-75
2023/04/20 04:10:17;;;;;;;9.77;8.57;;;;;;;8.50;67.44;94394.22;5051083;28;20042;-75
2023/04/20 04:12:43;;;;;;;9.75;8.10;;;;;;;8.45;68.09;94383.41;5090191;28;20043;-75
2023/04/20 04:15:09;;;;;;;11.40;9.55;;;;;;;8.41;69.92;94387.22;5085149;28;20490;-76
2023/04/20 04:17:35;;;;;;;10.43;8.13;;;;;;;8.34;69.15;94365.31;5070794;28;20028;-75
2023/04/20 04:20:00;;;;;;;10.40;8.43;;;;;;;8.46;67.56;94377.28;5073010;28;20474;-75
2023/04/20 04:22:26;;;;;;;9.25;8.02;;;;;;;8.60;68.19;94402.06;5038405;28;20489;-75
2023/04/20 04:24:53;;;;;;;11.27;9.00;;;;;;;8.60;68.33;94406.41;5033623;28;20181;-75
2023/04/20 04:27:19;;;;;;;11.43;8.82;;;;;;;8.57;67.64;94396.31;5088564;28;20039;-75
2023/04/20 04:29:45;;;;;;;11.07;8.35;;;;;;;8.61;67.45;94405.47;5046708;28;20053;-75
2023/04/20 04:32:11;;;;;;;9.50;7.68;;;;;;;8.67;69.34;94399.81;5087747;28;20043;-76
2023/04/20 04:34:37;;;;;;;8.82;7.93;;;;;;;8.66;68.36;94396.41;5072819;28;20028;-75
2023/04/20 04:37:03;;;;;;;11.85;8.43;;;;;;;8.70;69.90;94410.72;5053270;28;20036;-75
2023/04/20 04:39:28;;;;;;;10.90;7.97;;;;;;;8.61;68.98;94402.88;5076470;28;20028;-76
2023/04/20 04:41:54;;;;;;;13.63;10.00;;;;;;;8.70;70.00;94410.72;5072337;28;20044;-75
2023/04/20 04:44:20;;;;;;;9.13;8.15;;;;;;;8.47;69.11;94375.53;5050721;28;20583;-76
2023/04/20 04:46:46;;;;;;;12.15;8.85;;;;;;;8.68;69.58;94412.59;5087107;28;20423;-75
2023/04/20 04:49:12;;;;;;;9.57;8.20;;;;;;;8.71;70.59;94406.38;5058716;28;20123;-75
2023/04/20 04:51:37;;;;;;;8.77;7.85;;;;;;;8.75;70.94;94410.34;5066679;28;20143;-76
2023/04/20 04:54:03;;;;;;;9.18;7.75;;;;;;;8.77;70.82;94400.66;5073198;28;20089;-75
2023/04/20 04:56:28;;;;;;;10.15;8.18;;;;;;;8.79;71.07;94421.28;5062469;28;21503;-75
2023/04/20 04:58:54;;;;;;;11.35;9.50;;;;;;;8.83;71.11;94418.31;5056329;28;20032;-75
2023/04/20 05:01:20;;;;;;;12.43;10.32;;;;;;;8.87;69.70;94427.47;5077997;28;20048;-75
2023/04/20 05:03:45;;;;;;;13.43;10.88;;;;;;;8.66;68.98;94390.38;5077329;28;20025;-75
2023/04/20 05:06:11;;;;;;;13.60;9.98;;;;;;;8.90;69.04;94427.22;5028330;28;20060;-75
2023/04/20 05:08:36;;;;;;;12.85;10.30;;;;;;;8.89;70.73;94412.63;5090047;28;20032;-75
2023/04/20 05:11:02;;;;;;;12.63;10.07;;;;;;;8.84;70.08;94419.97;5050987;28;20036;-75
2023/04/20 05:13:27;;;;;;;20.45;12.48;;;;;;;8.90;70.11;94429.81;5053650;28;20032;-75
2023/04/20 05:15:53;;;;;;;19.35;13.60;;;;;;;8.95;71.24;94417.31;5087039;28;20425;-75
2023/04/20 05:18:18;;;;;;;14.95;10.48;;;;;;;9.04;71.35;94420.09;5070048;28;20031;-75
2023/04/20 05:20:43;;;;;;;15.85;11.73;;;;;;;8.91;69.58;94404.72;5067529;28;20028;-75
2023/04/20 05:23:09;;;;;;;15.05;12.15;;;;;;;9.03;68.23;94427.03;5063859;28;20029;-75
2023/04/20 05:25:34;;;;;;;16.73;12.23;;;;;;;8.98;67.55;94428.38;5084920;28;20028;-75
2023/04/20 05:28:00;;;;;;;18.52;12.68;;;;;;;8.95;68.44;94426.84;5070723;28;20417;-75
2023/04/20 05:30:25;;;;;;;16.63;12.95;;;;;;;9.01;66.55;94420.34;5074425;28;20080;-75
2023/04/20 05:32:51;;;;;;;17.50;12.65;;;;;;;9.08;66.19;94417.13;5040878;28;20036;-75
2023/04/20 05:35:16;;;;;;;19.92;13.15;;;;;;;9.16;65.58;94429.41;5073902;28;20024;-75
2023/04/20 05:37:42;;;;;;;19.30;13.68;;;;;;;9.19;64.70;94429.16;5076372;28;20040;-75
2023/04/20 05:40:08;;;;;;;17.90;13.70;;;;;;;9.23;65.06;94437.53;5074193;28;20023;-75
2023/04/20 05:42:33;;;;;;;18.02;12.80;;;;;;;9.31;66.50;94432.50;5036748;28;20059;-75
2023/04/20 05:44:59;;;;;;;14.73;11.65;;;;;;;9.34;65.40;94437.44;5056813;28;20494;-75
2023/04/20 05:47:26;;;;;;;13.10;11.38;;;;;;;9.38;64.75;94434.44;5058757;28;20035;-75
2023/04/20 05:49:52;;;;;;;16.05;11.73;;;;;;;9.43;65.35;94444.44;5075718;28;20047;-75
2023/04/20 05:52:17;;;;;;;18.40;13.85;;;;;;;9.47;64.71;94434.63;5093937;28;20281;-75
2023/04/20 05:54:43;;;;;;;19.67;15.95;;;;;;;9.47;65.06;94429.44;5042125;28;20494;-75
2023/04/20 05:57:08;;;;;;;19.38;13.35;;;;;;;9.50;65.97;94440.38;5075615;28;20478;-75
2023/04/20 05:59:34;;;;;;;17.90;11.88;;;;;;;9.54;64.59;94441.75;5058534;28;20016;-75
2023/04/20 06:01:59;;;;;;;17.33;11.60;;;;;;;9.54;63.16;94413.22;5075115;28;20052;-75
2023/04/20 06:04:25;;;;;;;15.32;12.07;;;;;;;9.65;63.05;94443.44;5058895;28;20032;-75
2023/04/20 06:06:53;;;;;;;15.60;12.52;;;;;;;9.59;63.28;94436.19;5070278;28;20055;-75
2023/04/20 06:09:19;;;;;;;16.80;12.48;;;;;;;9.53;63.04;94431.53;5092921;28;20064;-75
2023/04/20 06:11:45;;;;;;;15.30;12.07;;;;;;;9.63;63.92;94442.75;5075052;28;20505;-75
2023/04/20 06:14:11;;;;;;;16.35;12.80;;;;;;;9.72;64.14;94443.72;5057971;28;20464;-75
2023/04/20 06:16:36;;;;;;;16.35;12.30;;;;;;;9.75;63.66;94439.13;5075200;28;20375;-75
2023/04/20 06:19:02;;;;;;;15.35;12.30;;;;;;;9.58;62.92;94422.41;5058052;28;20413;-75
2023/04/20 06:21:28;;;;;;;14.48;12.10;;;;;;;9.75;62.77;94436.53;5093232;28;20032;-75
2023/04/20 06:23:53;;;;;;;14.48;11.15;;;;;;;9.71;62.67;94429.94;5074234;28;20024;-75
2023/04/20 06:26:18;;;;;;;13.40;11.35;;;;;;;9.67;63.43;94438.13;5082424;28;20032;-75
2023/04/20 06:28:46;;;;;;;16.55;12.30;;;;;;;9.78;63.84;94456.22;5058043;28;20100;-75
2023/04/20 06:31:11;;;;;;;14.77;11.98;;;;;;;9.80;62.93;94447.31;5086013;28;20035;-76
2023/04/20 06:33:37;;;;;;;15.02;12.80;;;;;;;9.72;63.71;94447.19;5065485;28;20452;-75
2023/04/20 06:36:05;;;;;;;16.85;11.70;;;;;;;9.79;63.18;94453.47;5074610;28;20028;-75
2023/04/20 06:38:31;;;;;;;15.13;12.23;;;;;;;9.72;63.71;94446.31;5074743;28;20511;-75
2023/04/20 06:41:01;;;;;;;16.38;12.55;;;;;;;9.80;63.31;94447.31;5055558;28;20619;-75
2023/04/20 06:43:27;;;;;;;16.10;12.43;;;;;;;9.81;63.14;94454.16;5038902;28;20040;-75
2023/04/20 06:45:53;;;;;;;16.00;12.30;;;;;;;9.82;63.41;94460.16;5068220;28;20287;-75
2023/04/20 06:48:18;;;;;;;15.52;11.52;;;;;;;9.73;62.97;94451.41;5074648;28;20149;-75
2023/04/20 06:50:49;;;;;;;17.05;12.57;;;;;;;9.69;63.22;94446.59;5089940;28;20032;-75
2023/04/20 06:53:15;;;;;;;16.48;12.25;;;;;;;9.84;63.60;94455.69;5056631;28;20114;-75
2023/04/20 06:55:40;;;;;;;17.88;12.15;;;;;;;9.99;62.76;94463.91;5061549;28;20043;-75
2023/04/20 06:58:05;;;;;;;19.40;13.02;;;;;;;9.89;63.09;94455.25;5087701;28;20039;-75
2023/04/20 07:00:31;;;;;;;18.67;13.15;;;;;;;9.88;63.11;94471.78;5051283;28;20036;-75
2023/04/20 07:02:56;;;;;;;20.77;16.45;;;;;;;9.91;63.88;94466.34;5052144;28;20430;-75
2023/04/20 07:05:22;;;;;;;18.95;16.15;;;;;;;10.02;63.89;94474.03;5068376;28;20028;-75
2023/04/20 07:07:48;;;;;;;22.38;16.85;;;;;;;9.97;63.35;94471.00;5053753;28;20119;-75
2023/04/20 07:10:13;;;;;;;21.65;15.77;;;;;;;10.00;63.08;94481.09;5053678;28;20028;-76
2023/04/20 07:12:39;;;;;;;20.25;15.05;;;;;;;10.00;63.25;94479.38;5059298;28;20190;-75
2023/04/20 07:15:05;;;;;;;15.18;12.32;;;;;;;9.90;62.93;94468.13;5071029;28;20037;-75
2023/04/20 07:17:31;;;;;;;16.33;12.18;;;;;;;9.88;63.98;94459.63;5053301;28;20033;-75
2023/04/20 07:19:57;;;;;;;17.60;13.00;;;;;;;10.03;63.76;94483.47;5049562;28;20410;-74
2023/04/20 07:22:23;;;;;;;19.23;14.15;;;;;;;9.93;64.29;94454.06;5041064;28;20036;-75
2023/04/20 07:24:50;;;;;;;20.77;15.18;;;;;;;10.06;63.72;94478.81;5075913;28;20025;-75
2023/04/20 07:27:15;;;;;;;21.60;15.52;;;;;;;10.00;63.41;94452.56;5052763;28;20123;-75
2023/04/20 07:29:41;;;;;;;16.98;13.15;;;;;;;10.06;63.23;94465.03;5040310;28;20039;-75
2023/04/20 07:32:06;;;;;;;19.45;13.25;;;;;;;10.13;62.90;94479.09;5056371;28;20047;-75
2023/04/20 07:34:32;;;;;;;17.73;14.00;;;;;;;10.14;62.92;94474.72;5089789;28;20055;-75
2023/04/20 07:36:57;;;;;;;19.95;12.75;;;;;;;10.23;62.08;94476.56;5071713;28;20509;-75
2023/04/20 07:39:24;;;;;;;19.17;12.77;;;;;;;10.21;63.22;94468.06;5072035;28;20490;-75
2023/04/20 07:41:49;;;;;;;16.77;13.63;;;;;;;10.24;62.17;94466.03;5054870;28;20060;-75
2023/04/20 07:44:15;;;;;;;20.58;13.68;;;;;;;10.34;62.40;94455.69;5054839;28;20028;-75
2023/04/20 07:46:40;;;;;;;19.15;14.30;;;;;;;10.29;62.75;94466.47;5054884;28;20035;-75
2023/04/20 07:49:06;;;;;;;14.20;11.18;;;;;;;10.23;62.47;94445.41;5054827;28;20032;-75
2023/04/20 07:51:33;;;;;;;45.92;25.42;;;;;;;10.35;61.42;94439.16;5071867;28;20028;-75
2023/04/20 07:53:58;;;;;;;21.48;15.13;;;;;;;10.58;61.74;94464.88;5091352;28;20020;-75
2023/04/20 07:56:24;;;;;;;15.63;11.68;;;;;;;10.58;60.96;94447.50;5056553;28;20042;-75
2023/04/20 07:58:49;;;;;;;13.88;11.00;;;;;;;10.87;60.86;94464.91;5056638;28;20623;-75
2023/04/20 08:01:15;;;;;;;16.50;12.00;;;;;;;10.91;60.41;94471.44;5039661;28;20426;-75
2023/04/20 08:03:40;;;;;;;14.43;10.43;;;;;;;10.87;58.93;94459.72;5089702;28;20024;-75
2023/04/20 08:06:06;;;;;;;13.27;10.40;;;;;;;10.95;59.96;94465.03;5091318;28;20043;-75
2023/04/20 08:08:31;;;;;;;14.90;12.02;;;;;;;11.06;59.47;94470.09;5073174;28;20028;-75
2023/04/20 08:10:59;;;;;;;19.48;12.30;;;;;;;10.81;58.54;94460.22;5073252;28;20044;-75
2023/04/20 08:13:26;;;;;;;15.52;11.40;;;;;;;11.04;59.87;94476.38;5073546;28;20402;-75
2023/04/20 08:15:51;;;;;;;19.35;13.07;;;;;;;11.13;58.80;94480.75;5090934;28;20040;-75
2023/04/20 08:18:17;;;;;;;16.10;11.95;;;;;;;11.12;58.61;94464.34;5073078;28;20521;-75
2023/04/20 08:20:44;;;;;;;14.57;10.77;;;;;;;11.24;57.92;94478.00;5039638;28;20491;-75
2023/04/20 08:23:10;;;;;;;12.82;10.50;;;;;;;11.34;57.13;94472.78;5056973;28;20024;-75
2023/04/20 08:25:38;;;;;;;12.52;9.95;;;;;;;11.19;57.93;94467.19;5072884;28;20078;-75
2023/04/20 08:28:05;;;;;;;12.32;9.93;;;;;;;11.27;57.77;94449.09;5073186;28;20111;-75
2023/04/20 08:30:30;;;;;;;14.40;11.00;;;;;;;11.34;57.10;94452.00;5056394;28;20032;-75
2023/04/20 08:32:56;;;;;;;13.50;10.20;;;;;;;11.50;56.15;94469.59;5073017;28;20413;-75
2023/04/20 08:35:22;;;;;;;13.15;10.30;;;;;;;11.48;56.95;94471.50;5072793;28;20016;-75
2023/04/20 08:37:47;;;;;;;18.50;12.60;;;;;;;11.59;57.31;94466.97;5056305;28;20036;-75
2023/04/20 08:40:13;;;;;;;13.95;10.50;;;;;;;11.55;56.67;94463.00;5072858;28;20035;-75
2023/04/20 08:42:38;;;;;;;13.65;10.25;;;;;;;11.55;56.64;94464.78;5073012;28;20129;-75
2023/04/20 08:45:04;;;;;;;12.88;10.00;;;;;;;11.69;57.15;94472.13;5090667;28;20028;-75
2023/04/20 08:47:30;;;;;;;16.75;11.65;;;;;;;11.29;56.42;94439.41;5056323;28;20039;-75
2023/04/20 08:49:55;;;;;;;13.55;10.82;;;;;;;11.60;56.21;94471.22;5055818;28;20409;-75
2023/04/20 08:52:20;;;;;;;20.98;14.38;;;;;;;11.65;56.80;94462.19;5056090;28;20036;-75
2023/04/20 08:54:46;;;;;;;17.52;12.40;;;;;;;11.60;56.91;94465.19;5072776;28;20024;-75
2023/04/20 08:57:11;;;;;;;12.88;10.73;;;;;;;11.61;56.75;94465.03;5072697;28;20039;-75
2023/04/20 08:59:37;;;;;;;16.90;13.00;;;;;;;11.53;56.37;94470.16;5072730;28;20032;-75
2023/04/20 09:02:10;;;;;;;16.15;11.73;;;;;;;11.65;56.91;94469.97;5090288;28;20541;-75
2023/04/20 09:04:35;;;;;;;21.10;16.20;;;;;;;11.74;56.80;94479.53;5094146;28;20086;-75
2023/04/20 09:07:01;;;;;;;15.93;12.90;;;;;;;11.53;56.53;94433.72;5059821;28;20460;-75
2023/04/20 09:09:27;;;;;;;15.07;11.38;;;;;;;11.87;55.82;94474.00;5076447;28;20032;-75
2023/04/20 09:12:06;;;;;;;13.43;10.70;;;;;;;11.80;55.32;94471.16;5076382;28;20033;-75
2023/04/20 09:14:45;;;;;;;12.85;10.15;;;;;;;11.75;55.28;94470.75;5059597;28;20028;-75
2023/04/20 09:17:13;;;;;;;13.07;10.15;;;;;;;11.80;55.89;94464.16;5059980;28;20111;-75
2023/04/20 09:19:38;;;;;;;13.57;11.23;;;;;;;11.97;56.14;94480.81;5060579;28;20103;-75
2023/04/20 09:22:05;;;;;;;15.15;10.60;;;;;;;12.10;56.18;94477.09;5076229;28;20474;-75
2023/04/20 09:24:34;;;;;;;13.50;11.48;;;;;;;12.10;55.93;94466.69;5076172;28;20532;-75
2023/04/20 09:27:01;;;;;;;11.02;9.82;;;;;;;12.21;54.90;94466.47;5076330;28;20032;-75
2023/04/20 09:29:27;;;;;;;15.70;10.57;;;;;;;12.03;54.67;94451.59;5059559;28;20040;-75
2023/04/20 09:31:53;;;;;;;14.98;11.93;;;;;;;12.33;55.54;94467.91;5042636;28;20059;-75
2023/04/20 09:34:18;;;;;;;12.18;10.18;;;;;;;12.48;54.84;94463.84;5059379;28;20086;-75
2023/04/20 09:36:50;;;;;;;11.52;9.50;;;;;;;12.64;54.39;94463.19;5075820;28;20024;-75
2023/04/20 09:39:19;;;;;;;17.10;9.80;;;;;;;12.56;53.26;94428.41;5076962;28;20062;-75
2023/04/20 09:41:45;;;;;;;13.80;10.77;;;;;;;12.87;53.00;94460.97;5076371;28;20118;-75
2023/04/20 09:44:11;;;;;;;14.02;10.57;;;;;;;12.94;52.63;94454.19;5059205;28;20032;-75
2023/04/20 09:46:38;;;;;;;22.27;15.18;;;;;;;13.07;52.06;94451.19;5058986;28;20024;-75
2023/04/20 09:49:04;;;;;;;22.10;16.95;;;;;;;13.18;52.24;94444.94;5059145;28;20188;-75
2023/04/20 09:51:34;;;;;;;16.05;12.18;;;;;;;13.25;51.18;94440.72;5058863;28;20032;-75
2023/04/20 09:54:02;;;;;;;15.52;11.45;;;;;;;13.13;51.27;94444.56;5058690;28;20418;-75
2023/04/20 09:56:28;;;;;;;13.38;11.50;;;;;;;13.15;51.50;94432.19;5058866;28;20035;-75
2023/04/20 09:58:54;;;;;;;14.35;11.40;;;;;;;13.08;51.00;94441.56;5093548;28;20039;-75
2023/04/20 10:01:19;;;;;;;13.35;10.70;;;;;;;13.28;51.29;94450.06;5058623;28;20075;-75
2023/04/20 10:03:45;;;;;;;17.13;14.60;;;;;;;13.35;51.88;94438.06;5058895;28;20032;-75
2023/04/20 10:06:23;;;;;;;14.93;11.40;;;;;;;13.48;51.02;94425.41;5058581;28;20501;-75
2023/04/20 10:08:50;;;;;;;12.45;10.45;;;;;;;13.64;50.39;94430.72;5093336;28;20111;-75
2023/04/20 10:11:36;;;;;;;13.60;10.85;;;;;;;13.67;51.21;94432.22;5075479;28;20036;-75
2023/04/20 10:14:14;;;;;;;11.50;10.30;;;;;;;13.78;50.54;94429.31;5058761;28;20111;-76
2023/04/20 10:16:40;;;;;;;15.57;11.52;;;;;;;13.94;50.89;94427.78;5074927;28;20024;-75
2023/04/20 10:19:06;;;;;;;14.32;10.48;;;;;;;14.01;49.87;94410.50;5075066;28;20020;-76
2023/04/20 10:21:32;;;;;;;13.75;10.90;;;;;;;14.19;49.24;94423.47;5075125;28;20077;-75
2023/04/20 10:23:59;;;;;;;14.23;11.32;;;;;;;14.34;50.35;94421.06;5058262;28;20066;-75
2023/04/20 10:26:46;;;;;;;12.10;10.85;;;;;;;14.64;49.34;94417.88;5058871;28;20107;-75
2023/04/20 10:29:25;;;;;;;11.85;10.40;;;;;;;14.76;48.14;94421.00;5058275;28;20177;-75
2023/04/20 10:31:52;;;;;;;11.20;10.00;;;;;;;14.84;47.83;94418.38;5058103;28;20565;-75
2023/04/20 10:34:27;;;;;;;12.93;10.63;;;;;;;14.99;47.88;94423.81;5058515;28;20028;-75
2023/04/20 10:36:53;;;;;;;13.88;9.93;;;;;;;15.07;46.99;94412.50;5073476;28;20160;-75
2023/04/20 10:39:19;;;;;;;15.27;9.90;;;;;;;15.15;47.00;94400.22;5075091;28;20028;-75
2023/04/20 10:42:02;;;;;;;12.18;10.30;;;;;;;15.19;47.17;94398.94;5058239;28;20039;-75
2023/04/20 10:44:28;;;;;;;15.68;13.35;;;;;;;15.35;46.97;94398.09;5059763;28;20024;-75
2023/04/20 10:46:54;;;;;;;12.07;10.73;;;;;;;15.42;46.40;94411.34;5041490;28;20066;-75
2023/04/20 10:49:24;;;;;;;16.33;14.55;;;;;;;15.38;45.88;94399.56;5057925;28;20489;-75
2023/04/20 10:51:50;;;;;;;13.82;10.00;;;;;;;15.53;46.16;94397.09;5058201;28;20054;-75
2023/04/20 10:54:16;;;;;;;15.52;11.38;;;;;;;15.64;46.14;94418.47;5074345;28;20036;-75
2023/04/20 10:56:44;;;;;;;10.60;9.07;;;;;;;15.86;45.54;94410.94;5057850;28;20039;-75
2023/04/20 10:59:11;;;;;;;15.30;12.52;;;;;;;16.12;45.97;94417.69;5074451;28;20020;-75
2023/04/20 11:01:37;;;;;;;11.55;9.90;;;;;;;16.17;44.14;94420.63;5057864;28;20081;-75
2023/04/20 11:04:03;;;;;;;9.50;8.60;;;;;;;16.16;43.42;94409.34;5092877;28;20024;-75
2023/04/20 11:06:30;;;;;;;10.13;7.60;;;;;;;16.24;43.28;94377.03;5074811;28;20508;-75
2023/04/20 11:08:55;;;;;;;12.85;8.93;;;;;;;16.44;43.94;94396.59;5074452;28;20028;-75
2023/04/20 11:11:28;;;;;;;14.32;8.32;;;;;;;16.50;43.09;94395.88;5057867;28;20059;-75
2023/04/20 11:14:07;;;;;;;10.77;8.93;;;;;;;16.66;42.99;94378.41;5043034;28;20063;-75
2023/04/20 11:16:32;;;;;;;9.60;8.60;;;;;;;16.75;44.20;94387.84;5057373;28;20130;-75
2023/04/20 11:18:58;;;;;;;10.05;9.02;;;;;;;16.80;42.83;94382.94;5073907;28;20505;-75
2023/04/20 11:21:33;;;;;;;7.75;6.93;;;;;;;16.70;40.79;94377.06;5073941;28;20048;-75